Time;durP1;ratioP1;P1;durP2;ratioP2;P2;SDS_P1;SDS_P2;PMS_P1;PMS_P2;Temp;Humidity;BMP_temperature;BMP_pressure;BME280_temperature;BME280_humidity;BME280_pressure;Samples;Min_cycle;Max_cycle;Signal;HPM_P1;HPM_P2
2023/01/28 00:00:10;;;;;;;23.50;13.60;;;;;;;-0.05;100.00;100290.78;1422646;92;22590;-81
2023/01/28 00:02:37;;;;;;;20.27;11.53;;;;;;;-0.01;100.00;100288.84;1426792;92;21679;-81
2023/01/28 00:05:04;;;;;;;22.03;13.50;;;;;;;-0.06;100.00;100287.81;1438171;90;22853;-81
2023/01/28 00:07:31;;;;;;;28.60;16.17;;;;;;;-0.03;100.00;100290.25;1448301;90;21637;-81
2023/01/28 00:09:57;;;;;;;29.87;16.90;;;;;;;0.01;100.00;100293.52;1447147;90;21690;-80
2023/01/28 00:12:23;;;;;;;20.40;13.40;;;;;;;-0.01;100.00;100296.19;1454444;90;21631;-81
2023/01/28 00:14:50;;;;;;;22.17;13.83;;;;;;;0.05;100.00;100295.48;1450801;90;21751;-81
2023/01/28 00:17:16;;;;;;;25.73;13.07;;;;;;;-0.02;100.00;100299.72;1468931;88;21808;-85
2023/01/28 00:19:43;;;;;;;20.73;11.20;;;;;;;-0.02;100.00;100300.19;1480027;88;21745;-85
2023/01/28 00:22:09;;;;;;;22.07;13.10;;;;;;;-0.01;100.00;100301.39;1475415;88;21737;-83
2023/01/28 00:24:35;;;;;;;20.00;12.50;;;;;;;-0.02;100.00;100298.89;1476882;88;21570;-83
2023/01/28 00:27:02;;;;;;;24.23;14.43;;;;;;;0.00;100.00;100295.75;1478750;88;21612;-84
2023/01/28 00:29:28;;;;;;;23.23;12.80;;;;;;;0.00;100.00;100295.75;1479887;88;21976;-83
2023/01/28 00:31:55;;;;;;;27.67;16.00;;;;;;;0.02;100.00;100301.69;1478027;88;22785;-81
2023/01/28 00:34:22;;;;;;;23.67;14.10;;;;;;;-0.05;100.00;100302.49;1472663;88;21509;-82
2023/01/28 00:36:56;;;;;;;26.77;12.97;;;;;;;0.06;100.00;100304.95;1474143;88;21840;-83
2023/01/28 00:39:16;;;;;;;27.40;16.50;;;;;;;0.04;99.80;100302.92;1471451;88;21792;-83
2023/01/28 00:41:43;;;;;;;23.83;13.70;;;;;;;0.05;99.76;100306.72;1480930;88;21809;-83
2023/01/28 00:44:10;;;;;;;24.00;15.37;;;;;;;0.05;99.67;100305.89;1471129;88;22568;-82
2023/01/28 00:46:36;;;;;;;25.10;15.10;;;;;;;0.06;99.50;100312.77;1469811;88;21708;-82
2023/01/28 00:49:03;;;;;;;26.93;15.70;;;;;;;0.05;99.50;100309.80;1474231;88;21619;-79
2023/01/28 00:51:29;;;;;;;24.67;12.93;;;;;;;0.00;99.41;100312.66;1469086;88;21731;-84
2023/01/28 00:53:55;;;;;;;26.37;15.17;;;;;;;0.03;99.48;100316.40;1474820;88;21891;-85
2023/01/28 00:56:21;;;;;;;25.50;13.80;;;;;;;0.10;99.39;100314.30;1473520;88;21723;-84
2023/01/28 00:58:47;;;;;;;25.47;15.23;;;;;;;-0.02;99.64;100312.73;1474205;88;21685;-85
2023/01/28 01:01:18;;;;;;;23.53;13.27;;;;;;;0.07;99.50;100314.00;1477761;88;21639;-84
2023/01/28 01:03:45;;;;;;;23.60;14.18;;;;;;;0.01;99.58;100310.89;1474902;88;22018;-86
2023/01/28 01:06:14;;;;;;;26.57;16.20;;;;;;;0.11;99.57;100312.06;1496027;88;21697;-85
2023/01/28 01:08:48;;;;;;;26.47;14.30;;;;;;;0.10;99.44;100311.69;1483433;88;21812;-83
2023/01/28 01:11:11;;;;;;;21.70;13.00;;;;;;;0.11;99.46;100318.09;1490251;88;21752;-83
2023/01/28 01:13:38;;;;;;;28.00;13.50;;;;;;;0.13;99.26;100315.42;1484557;88;21768;-84
2023/01/28 01:16:18;;;;;;;22.23;13.27;;;;;;;0.08;99.54;100317.43;1483924;88;21733;-85
2023/01/28 01:18:43;;;;;;;24.00;14.37;;;;;;;0.05;100.00;100321.50;1484267;88;21641;-84
2023/01/28 01:21:16;;;;;;;21.20;13.97;;;;;;;0.07;100.00;100323.57;1481690;88;22606;-84
2023/01/28 01:23:43;;;;;;;24.70;12.20;;;;;;;0.04;100.00;100317.23;1489090;88;22302;-83
2023/01/28 01:26:10;;;;;;;21.27;12.23;;;;;;;0.01;100.00;100316.94;1486602;88;22553;-82
2023/01/28 01:28:36;;;;;;;21.27;12.27;;;;;;;0.03;100.00;100315.53;1490550;87;21689;-82
2023/01/28 01:31:07;;;;;;;20.97;11.93;;;;;;;0.05;100.00;100315.83;1485836;88;21832;-85
2023/01/28 01:33:34;;;;;;;27.77;15.78;;;;;;;0.10;100.00;100318.20;1487596;88;22388;-82
2023/01/28 01:36:01;;;;;;;23.47;13.87;;;;;;;0.06;100.00;100319.27;1492367;88;21619;-81
2023/01/28 01:38:28;;;;;;;22.00;11.13;;;;;;;0.05;100.00;100318.44;1481240;88;21656;-80
2023/01/28 01:40:59;;;;;;;20.33;12.77;;;;;;;0.03;100.00;100322.04;1483742;87;21597;-82
2023/01/28 01:43:49;;;;;;;19.98;11.83;;;;;;;0.04;100.00;100324.57;1482617;88;21808;-82
2023/01/28 01:46:36;;;;;;;26.57;13.90;;;;;;;0.01;100.00;100323.91;1480033;88;21449;-81
2023/01/28 01:49:22;;;;;;;22.43;13.10;;;;;;;0.03;100.00;100322.04;1529952;87;22638;-85
2023/01/28 01:51:53;;;;;;;19.23;11.00;;;;;;;0.06;100.00;100314.06;1467090;88;21687;-84
2023/01/28 01:54:23;;;;;;;25.85;15.15;;;;;;;0.01;100.00;100320.00;1489281;88;21728;-84
2023/01/28 01:56:51;;;;;;;22.17;12.97;;;;;;;0.09;100.00;100316.53;1485634;88;21649;-85
2023/01/28 01:59:28;;;;;;;22.33;12.57;;;;;;;0.02;100.00;100310.80;1489303;88;22555;-85
2023/01/28 02:01:55;;;;;;;21.20;12.37;;;;;;;0.06;100.00;100314.06;1477843;88;21642;-87
2023/01/28 02:04:32;;;;;;;16.40;10.17;;;;;;;0.06;100.00;100316.66;1479966;88;21736;-86
2023/01/28 02:07:00;;;;;;;22.30;12.10;;;;;;;0.04;100.00;100315.47;1487093;88;21788;-83
2023/01/28 02:09:30;;;;;;;18.73;12.03;;;;;;;0.05;100.00;100318.91;1484037;88;21567;-82
2023/01/28 02:12:01;;;;;;;24.43;13.60;;;;;;;0.03;100.00;100314.23;1482496;88;21731;-83
2023/01/28 02:14:32;;;;;;;34.83;13.43;;;;;;;0.09;100.00;100314.77;1481325;88;21677;-82
2023/01/28 02:17:01;;;;;;;21.73;11.75;;;;;;;0.10;100.00;100318.20;1479079;88;21427;-82
2023/01/28 02:19:35;;;;;;;21.20;12.40;;;;;;;0.04;100.00;100312.03;1493275;87;21427;-82
2023/01/28 02:22:07;;;;;;;17.33;10.13;;;;;;;0.04;100.00;100313.33;1483976;88;22748;-84
2023/01/28 02:24:58;;;;;;;21.37;13.00;;;;;;;0.02;100.00;100316.00;1478392;88;21683;-83
2023/01/28 02:27:38;;;;;;;20.90;12.90;;;;;;;-0.02;100.00;100310.12;1482409;87;21598;-83
2023/01/28 02:30:16;;;;;;;21.67;10.93;;;;;;;-0.01;100.00;100314.40;1480773;88;21620;-83
2023/01/28 02:33:04;;;;;;;18.30;11.37;;;;;;;-0.05;100.00;100318.11;1485052;88;22595;-82
2023/01/28 02:35:50;;;;;;;19.03;10.63;;;;;;;-0.05;100.00;100319.88;1487344;88;21604;-80
2023/01/28 02:38:30;;;;;;;19.17;12.00;;;;;;;-0.05;100.00;100316.80;1476382;88;21628;-84
2023/01/28 02:41:05;;;;;;;21.47;12.23;;;;;;;-0.02;100.00;100320.54;1491187;88;21746;-85
2023/01/28 02:43:42;;;;;;;14.97;9.50;;;;;;;-0.07;100.00;100319.94;1480672;88;22583;-85
2023/01/28 02:49:24;;;;;;;16.07;10.70;;;;;;;-0.03;100.00;100318.87;1487274;87;22544;-83
2023/01/28 02:55:36;;;;;;;19.47;10.47;;;;;;;-0.05;100.00;100323.30;1487765;87;22477;-84
2023/01/28 02:58:11;;;;;;;19.50;11.77;;;;;;;-0.11;100.00;100324.94;1484741;88;21879;-85
2023/01/28 03:00:57;;;;;;;17.30;11.20;;;;;;;-0.07;100.00;100325.61;1475747;87;22493;-84
2023/01/28 03:03:56;;;;;;;18.83;11.87;;;;;;;-0.09;100.00;100323.54;1482359;88;21779;-85
2023/01/28 03:06:37;;;;;;;16.07;9.57;;;;;;;-0.06;100.00;100325.55;1484971;88;21737;-88
2023/01/28 03:09:21;;;;;;;;;;;;;;;-0.04;100.00;100331.48;1493769;88;21862;-87
2023/01/28 03:38:47;;;;;;;17.47;10.50;;;;;;;-0.15;100.00;100332.52;1479884;87;22866;-80
2023/01/28 03:41:11;;;;;;;22.30;11.03;;;;;;;-0.13;100.00;100328.08;1460218;88;21692;-84
2023/01/28 03:43:38;;;;;;;16.37;9.70;;;;;;;-0.13;100.00;100330.68;1496288;88;22592;-83
2023/01/28 03:46:05;;;;;;;17.80;10.67;;;;;;;-0.15;100.00;100324.70;1476296;88;21627;-85
2023/01/28 03:48:31;;;;;;;19.37;10.77;;;;;;;-0.13;100.00;100329.84;1482705;88;21770;-86
2023/01/28 03:50:59;;;;;;;20.77;11.33;;;;;;;-0.11;100.00;100328.84;1471735;88;21568;-87
2023/01/28 03:53:25;;;;;;;20.57;12.10;;;;;;;-0.13;100.00;100325.47;1483525;88;22274;-87
2023/01/28 03:55:53;;;;;;;21.87;13.27;;;;;;;-0.11;100.00;100337.11;1480722;88;21643;-85
2023/01/28 03:58:20;;;;;;;22.13;11.57;;;;;;;-0.10;100.00;100340.09;1482288;87;21641;-85
2023/01/28 04:00:47;;;;;;;18.03;10.70;;;;;;;-0.13;100.00;100341.09;1467417;88;22689;-84
2023/01/28 04:03:17;;;;;;;16.33;10.57;;;;;;;-0.16;100.00;100339.95;1483168;88;21847;-87
2023/01/28 04:05:46;;;;;;;17.97;10.53;;;;;;;-0.14;100.00;100341.18;1484985;88;21664;-83
2023/01/28 04:08:13;;;;;;;19.30;10.87;;;;;;;-0.14;100.00;100336.81;1482720;88;21832;-84
2023/01/28 04:10:40;;;;;;;19.57;11.33;;;;;;;-0.10;100.00;100343.52;1486201;88;22759;-86
2023/01/28 04:13:06;;;;;;;21.73;12.67;;;;;;;-0.10;100.00;100338.31;1485550;88;21710;-84
2023/01/28 04:15:34;;;;;;;22.10;13.10;;;;;;;-0.05;100.00;100343.28;1487889;88;21673;-87
2023/01/28 04:18:01;;;;;;;23.50;14.90;;;;;;;-0.11;100.00;100344.45;1485309;88;21838;-87
2023/01/28 04:20:27;;;;;;;23.33;12.97;;;;;;;-0.10;100.00;100344.82;1484609;88;21688;-87
2023/01/28 04:22:54;;;;;;;20.40;11.23;;;;;;;-0.09;100.00;100349.09;1485220;88;21663;-87
2023/01/28 04:25:20;;;;;;;22.57;13.40;;;;;;;-0.10;100.00;100344.82;1483118;88;21806;-87
2023/01/28 04:27:46;;;;;;;19.87;10.63;;;;;;;-0.09;100.00;100350.39;1485209;88;22691;-87
2023/01/28 04:30:12;;;;;;;21.93;11.97;;;;;;;-0.06;100.00;100350.27;1484007;88;21802;-89
2023/01/28 04:32:38;;;;;;;23.03;11.80;;;;;;;-0.06;100.00;100350.27;1481841;88;21639;-86
2023/01/28 04:35:05;;;;;;;20.30;11.47;;;;;;;-0.02;100.00;100353.53;1486918;88;21687;-88
2023/01/28 04:37:31;;;;;;;20.40;10.77;;;;;;;-0.02;100.00;100353.06;1484194;88;21679;-84
2023/01/28 04:39:58;;;;;;;20.67;11.63;;;;;;;-0.04;100.00;100354.06;1483180;87;22561;-85
2023/01/28 04:42:33;;;;;;;20.97;12.00;;;;;;;-0.04;100.00;100364.47;1483938;88;21599;-84
2023/01/28 04:44:59;;;;;;;20.00;11.43;;;;;;;0.01;100.00;100361.64;1475031;88;21895;-87
2023/01/28 04:47:25;;;;;;;19.60;11.90;;;;;;;0.02;100.00;100365.44;1481569;88;21683;-83
2023/01/28 04:49:51;;;;;;;24.73;13.67;;;;;;;-0.01;100.00;100363.84;1480469;88;21904;-85
2023/01/28 04:52:17;;;;;;;27.13;15.07;;;;;;;-0.01;100.00;100366.44;1479129;88;21650;-86
2023/01/28 04:54:43;;;;;;;22.37;12.40;;;;;;;0.02;100.00;100368.52;1480482;88;22589;-87
2023/01/28 04:57:09;;;;;;;21.60;11.57;;;;;;;-0.04;100.00;100371.81;1480362;88;21647;-84
2023/01/28 04:59:35;;;;;;;22.80;12.20;;;;;;;-0.01;100.00;100376.02;1482590;88;21835;-82
2023/01/28 05:02:01;;;;;;;25.07;12.07;;;;;;;0.02;100.00;100376.31;1481615;88;23280;-86
2023/01/28 05:04:28;;;;;;;25.97;11.53;;;;;;;0.03;100.00;100383.19;1485362;88;21692;-88
2023/01/28 05:06:54;;;;;;;22.97;12.80;;;;;;;-0.01;100.00;100376.84;1480350;87;21818;-87
2023/01/28 05:09:20;;;;;;;21.63;11.53;;;;;;;-0.05;100.00;100377.95;1478624;88;21666;-87
2023/01/28 05:11:46;;;;;;;21.07;13.17;;;;;;;-0.03;100.00;100391.72;1472332;88;21911;-84
2023/01/28 05:14:12;;;;;;;25.73;13.83;;;;;;;0.04;100.00;100391.39;1475083;88;21670;-85
2023/01/28 05:16:39;;;;;;;22.63;12.93;;;;;;;0.02;100.00;100392.77;1468585;88;21656;-83
2023/01/28 05:19:05;;;;;;;26.13;13.37;;;;;;;0.04;100.00;100394.00;1473936;88;21903;-84
2023/01/28 05:21:31;;;;;;;25.83;12.70;;;;;;;0.06;100.00;100385.19;1475127;88;21622;-85
2023/01/28 05:23:57;;;;;;;26.80;14.47;;;;;;;0.06;100.00;100385.63;1473814;88;22612;-85
2023/01/28 05:26:23;;;;;;;26.73;14.53;;;;;;;0.09;100.00;100385.03;1478916;88;21626;-86
2023/01/28 05:28:50;;;;;;;23.70;12.27;;;;;;;0.06;99.88;100385.63;1453708;88;22452;-83
2023/01/28 05:31:16;;;;;;;24.10;14.23;;;;;;;0.06;99.68;100389.53;1457030;88;21696;-83
2023/01/28 05:33:42;;;;;;;26.40;13.07;;;;;;;0.11;99.79;100391.44;1475303;88;21766;-82
2023/01/28 05:36:09;;;;;;;23.47;13.30;;;;;;;0.10;99.51;100390.59;1468428;88;21719;-85
2023/01/28 05:38:35;;;;;;;34.80;18.63;;;;;;;0.11;99.48;100389.66;1473735;88;21689;-86
2023/01/28 05:41:01;;;;;;;28.13;15.70;;;;;;;0.06;98.79;100389.53;1477392;88;21586;-88
2023/01/28 05:43:27;;;;;;;26.27;14.53;;;;;;;0.06;98.79;100389.53;1468081;88;22891;-87
2023/01/28 05:45:53;;;;;;;24.40;13.17;;;;;;;0.11;98.60;100394.03;1474421;88;21696;-87
2023/01/28 05:48:20;;;;;;;23.73;12.80;;;;;;;0.11;98.34;100393.57;1473605;88;22047;-87
2023/01/28 05:50:47;;;;;;;26.13;14.43;;;;;;;0.17;98.21;100399.77;1475015;88;22680;-88
2023/01/28 05:53:13;;;;;;;32.47;17.17;;;;;;;0.18;97.98;100400.14;1476994;88;21799;-89
2023/01/28 05:55:39;;;;;;;31.67;15.87;;;;;;;0.18;97.64;100404.52;1474471;88;21537;-89
2023/01/28 05:58:05;;;;;;;27.97;15.10;;;;;;;0.17;97.46;100403.69;1455521;88;21616;-91
2023/01/28 06:00:31;;;;;;;22.47;12.63;;;;;;;0.16;97.32;100411.55;1474593;88;21605;-92
2023/01/28 06:02:57;;;;;;;27.07;13.97;;;;;;;0.07;96.52;100405.55;1457616;88;21612;-91
2023/01/28 06:05:23;;;;;;;28.40;14.83;;;;;;;0.07;96.52;100405.55;1477200;88;22241;-89
2023/01/28 06:07:50;;;;;;;28.60;14.97;;;;;;;0.19;96.83;100418.73;1481466;88;21775;-86
2023/01/28 06:10:16;;;;;;;26.70;15.27;;;;;;;0.19;96.50;100423.10;1482035;88;21678;-84
2023/01/28 06:12:43;;;;;;;33.37;15.27;;;;;;;0.22;96.57;100424.23;1484768;88;21783;-85
2023/01/28 06:15:11;;;;;;;26.37;16.07;;;;;;;0.15;95.64;100422.90;1486586;88;21709;-85
2023/01/28 06:17:37;;;;;;;25.83;15.17;;;;;;;0.18;95.94;100430.08;1485257;88;23189;-86
2023/01/28 06:20:04;;;;;;;29.73;15.70;;;;;;;0.20;95.71;100425.64;1481872;88;21724;-87
2023/01/28 06:22:30;;;;;;;30.03;15.70;;;;;;;0.26;95.55;100431.42;1485110;88;21832;-86
2023/01/28 06:24:56;;;;;;;30.13;16.20;;;;;;;0.18;94.92;100424.88;1482047;88;22626;-86
2023/01/28 06:27:22;;;;;;;28.00;15.13;;;;;;;0.22;95.10;100436.79;1484082;87;21890;-87
2023/01/28 06:29:49;;;;;;;37.47;20.90;;;;;;;0.26;94.46;100441.39;1481068;88;21753;-87
2023/01/28 06:32:15;;;;;;;32.00;16.43;;;;;;;0.26;94.46;100441.39;1483037;88;22108;-86
2023/01/28 06:34:41;;;;;;;32.57;18.17;;;;;;;0.31;94.57;100443.27;1477097;88;21811;-85
2023/01/28 06:37:07;;;;;;;26.90;15.10;;;;;;;0.36;94.43;100447.77;1482457;88;21597;-88
2023/01/28 06:39:33;;;;;;;27.90;16.17;;;;;;;0.33;94.01;100440.13;1486122;88;21654;-86
2023/01/28 06:41:59;;;;;;;28.07;16.30;;;;;;;0.28;93.44;100441.30;1485042;88;21709;-83
2023/01/28 06:44:26;;;;;;;26.87;15.37;;;;;;;0.36;93.56;100446.94;1479266;88;21695;-85
2023/01/28 06:46:52;;;;;;;27.83;16.27;;;;;;;0.33;93.20;100445.34;1485640;88;22389;-83
2023/01/28 06:49:19;;;;;;;32.60;16.60;;;;;;;0.34;93.20;100449.61;1487359;88;21524;-82
2023/01/28 06:51:47;;;;;;;34.87;18.33;;;;;;;0.33;92.60;100453.15;1486747;87;23044;-84
2023/01/28 06:54:13;;;;;;;27.77;16.80;;;;;;;0.41;92.45;100446.23;1482702;88;21645;-82
2023/01/28 06:56:40;;;;;;;27.80;15.67;;;;;;;0.41;91.89;100452.28;1480751;88;22751;-85
2023/01/28 06:59:06;;;;;;;31.83;16.97;;;;;;;0.38;90.62;100451.14;1487144;88;21813;-84
2023/01/28 07:01:33;;;;;;;32.50;19.00;;;;;;;0.43;90.63;100457.39;1479501;88;21830;-85
2023/01/28 07:03:59;;;;;;;32.57;16.90;;;;;;;0.47;90.86;100460.70;1484950;87;22784;-82
2023/01/28 07:06:25;;;;;;;28.70;14.47;;;;;;;0.47;90.54;100460.23;1486273;88;21679;-85
2023/01/28 07:08:51;;;;;;;31.67;18.20;;;;;;;0.47;89.71;100460.70;1475558;88;22340;-85
2023/01/28 07:11:18;;;;;;;24.93;14.53;;;;;;;0.50;89.79;100464.44;1469939;88;22648;-80
2023/01/28 07:13:44;;;;;;;29.13;14.33;;;;;;;0.47;89.11;100458.09;1476637;88;22757;-83
2023/01/28 07:16:10;;;;;;;28.10;14.90;;;;;;;0.50;89.09;100473.55;1457190;88;21814;-83
2023/01/28 07:18:36;;;;;;;29.93;15.23;;;;;;;0.51;88.67;100471.31;1469789;88;21866;-80
2023/01/28 07:21:02;;;;;;;29.00;15.00;;;;;;;0.53;89.07;100475.98;1474562;88;21553;-82
2023/01/28 07:23:28;;;;;;;24.30;14.10;;;;;;;0.54;88.44;100484.17;1473340;88;21797;-85
2023/01/28 07:25:56;;;;;;;30.43;16.13;;;;;;;0.60;88.40;100481.23;1470406;88;21893;-85
2023/01/28 07:28:22;;;;;;;30.93;17.37;;;;;;;0.60;88.03;100487.28;1553702;88;21814;-84
2023/01/28 07:30:52;;;;;;;33.30;15.00;;;;;;;0.64;87.96;100487.97;1398345;88;21830;-83
2023/01/28 07:33:19;;;;;;;26.03;12.87;;;;;;;0.64;87.53;100488.81;1398372;88;22534;-84
2023/01/28 07:35:47;;;;;;;21.67;11.77;;;;;;;0.68;87.71;100485.57;1398377;88;21772;-83
2023/01/28 07:38:14;;;;;;;30.67;14.60;;;;;;;0.73;88.48;100482.27;1396149;88;21568;-83
2023/01/28 07:40:44;;;;;;;27.47;15.17;;;;;;;0.98;90.59;100488.72;1403689;88;21683;-83
2023/01/28 07:43:10;;;;;;;23.27;13.43;;;;;;;1.11;92.24;100485.81;1394633;88;21600;-81
2023/01/28 07:45:37;;;;;;;23.93;13.53;;;;;;;1.22;87.17;100482.62;1400774;88;22657;-83
2023/01/28 07:48:06;;;;;;;26.47;14.13;;;;;;;1.27;86.64;100486.65;1398280;88;21837;-81
2023/01/28 07:50:35;;;;;;;27.70;15.30;;;;;;;1.24;85.55;100486.82;1395573;88;21676;-82
2023/01/28 07:53:07;;;;;;;24.33;13.90;;;;;;;1.29;84.48;100493.89;1401803;88;21613;-84
2023/01/28 07:55:36;;;;;;;29.73;15.97;;;;;;;1.31;84.69;100487.30;1396195;88;21596;-84
2023/01/28 07:58:05;;;;;;;32.20;15.90;;;;;;;1.18;84.50;100485.86;1381900;90;21598;-82
2023/01/28 08:00:34;;;;;;;26.77;14.13;;;;;;;1.21;85.06;100490.91;1395970;88;21761;-82
2023/01/28 08:03:05;;;;;;;27.23;14.87;;;;;;;1.14;84.13;100488.25;1444762;88;22253;-84
2023/01/28 08:05:40;;;;;;;27.42;14.87;;;;;;;1.07;84.04;100489.06;1470264;88;22722;-82
2023/01/28 08:08:08;;;;;;;25.40;13.53;;;;;;;1.03;83.19;100488.84;1558904;88;21406;-85
2023/01/28 08:10:37;;;;;;;28.57;14.37;;;;;;;0.99;83.72;100493.86;1543691;88;21724;-83
2023/01/28 08:13:04;;;;;;;32.13;15.13;;;;;;;1.09;84.79;100493.73;1396120;88;22583;-82
2023/01/28 08:15:31;;;;;;;23.83;13.23;;;;;;;1.11;84.92;100487.12;1397822;88;21687;-83
2023/01/28 08:17:58;;;;;;;32.70;16.80;;;;;;;1.12;84.27;100487.48;1398369;88;21798;-82
2023/01/28 08:20:27;;;;;;;29.20;15.57;;;;;;;1.13;84.26;100492.62;1402782;88;21769;-85
2023/01/28 08:23:06;;;;;;;30.30;15.07;;;;;;;1.20;83.94;100493.59;1395667;88;21910;-82
2023/01/28 08:25:34;;;;;;;28.03;15.13;;;;;;;1.20;83.80;100496.19;1397256;88;22550;-83
2023/01/28 08:28:01;;;;;;;30.53;16.40;;;;;;;1.21;83.59;100497.42;1397490;88;21567;-85
2023/01/28 08:30:28;;;;;;;28.30;15.07;;;;;;;1.33;84.26;100501.94;1397632;88;21817;-85
2023/01/28 08:32:58;;;;;;;29.30;15.57;;;;;;;1.29;83.24;100499.11;1404221;88;21730;-85
2023/01/28 08:35:26;;;;;;;25.52;13.55;;;;;;;1.39;84.28;100503.83;1542595;88;21630;-83
2023/01/28 08:37:53;;;;;;;33.13;17.03;;;;;;;1.32;82.58;100501.58;1383402;89;21577;-88
2023/01/28 08:40:20;;;;;;;27.47;13.87;;;;;;;1.39;83.36;100503.83;1398347;88;21586;-86
2023/01/28 08:42:51;;;;;;;31.17;16.33;;;;;;;1.37;82.50;100505.67;1397573;88;21852;-86
2023/01/28 08:45:18;;;;;;;29.25;15.70;;;;;;;1.47;84.03;100512.90;1396897;88;22834;-88
2023/01/28 08:47:52;;;;;;;31.57;15.27;;;;;;;1.50;84.00;100514.50;1402992;88;21464;-87
2023/01/28 08:50:20;;;;;;;28.00;16.17;;;;;;;1.45;81.67;100520.43;1556617;88;22454;-91
2023/01/28 08:52:48;;;;;;;28.60;13.70;;;;;;;1.45;82.10;100521.73;1380557;90;21650;-84
2023/01/28 08:55:17;;;;;;;28.00;12.90;;;;;;;1.45;82.30;100523.04;1397042;88;21584;-87
2023/01/28 08:57:43;;;;;;;24.80;11.77;;;;;;;1.56;83.53;100528.02;1558016;88;21646;-89
2023/01/28 09:00:11;;;;;;;30.30;17.07;;;;;;;1.54;81.42;100529.86;1405091;88;21947;-88
2023/01/28 09:02:38;;;;;;;29.57;15.47;;;;;;;1.54;81.42;100529.86;1538194;88;21658;-87
2023/01/28 09:05:05;;;;;;;26.57;14.73;;;;;;;1.58;81.68;100535.74;1398577;88;21836;-82
2023/01/28 09:07:34;;;;;;;27.83;13.87;;;;;;;1.66;82.45;100538.76;1397216;88;22619;-87
2023/01/28 09:10:00;;;;;;;31.37;16.00;;;;;;;1.63;82.01;100532.88;1401852;88;21991;-87
2023/01/28 09:12:26;;;;;;;31.47;17.40;;;;;;;1.73;82.45;100536.19;1398949;88;21834;-89
2023/01/28 09:14:53;;;;;;;28.70;16.00;;;;;;;1.76;81.57;100536.48;1391436;89;21860;-83
2023/01/28 09:17:20;;;;;;;30.97;12.83;;;;;;;1.76;81.49;100543.84;1398617;88;21927;-88
2023/01/28 09:19:46;;;;;;;30.60;14.43;;;;;;;1.76;81.49;100543.84;1397690;88;21865;-86
2023/01/28 09:22:12;;;;;;;29.07;12.83;;;;;;;1.79;80.98;100544.12;1381676;90;21768;-84
2023/01/28 09:24:38;;;;;;;33.33;16.63;;;;;;;1.73;80.28;100539.27;1398866;88;22878;-85
2023/01/28 09:27:05;;;;;;;32.27;16.67;;;;;;;1.75;80.67;100540.83;1399236;88;21764;-86
2023/01/28 09:29:33;;;;;;;31.17;15.30;;;;;;;1.78;80.81;100532.86;1398348;88;21758;-86
2023/01/28 09:32:00;;;;;;;30.27;16.50;;;;;;;1.78;80.81;100532.86;1396222;88;22009;-88
2023/01/28 09:34:26;;;;;;;31.00;16.90;;;;;;;1.91;80.78;100538.66;1398672;88;22045;-88
2023/01/28 09:36:52;;;;;;;30.50;14.97;;;;;;;1.89;79.46;100536.59;1399020;88;22060;-87
2023/01/28 09:39:18;;;;;;;28.33;13.80;;;;;;;1.89;79.46;100536.59;1398699;88;21868;-88
2023/01/28 09:42:17;;;;;;;26.00;14.10;;;;;;;2.02;79.46;100540.19;1404958;88;21999;-89
2023/01/28 09:45:10;;;;;;;28.13;14.93;;;;;;;1.97;79.04;100535.22;1459623;88;23063;-88
2023/01/28 09:47:50;;;;;;;27.23;12.87;;;;;;;1.97;79.04;100535.22;1559241;88;21783;-84
2023/01/28 09:50:34;;;;;;;33.05;16.90;;;;;;;1.99;78.50;100537.75;1559268;88;22647;-85
2023/01/28 09:53:14;;;;;;;27.67;14.60;;;;;;;2.04;78.96;100527.85;1559282;88;21303;-88
2023/01/28 09:55:54;;;;;;;29.70;14.35;;;;;;;2.03;78.79;100527.02;1553114;88;21842;-88
2023/01/28 09:58:20;;;;;;;29.53;14.47;;;;;;;2.17;79.67;100527.52;1548473;88;22359;-89
2023/01/28 10:01:25;;;;;;;28.83;15.77;;;;;;;2.17;79.67;100520.44;1398616;88;21987;-89
2023/01/28 10:04:11;;;;;;;30.50;16.87;;;;;;;2.19;78.46;100520.44;1399752;88;22067;-89
2023/01/28 10:07:01;;;;;;;29.90;15.47;;;;;;;2.31;79.86;100524.55;1559119;88;22004;-87
2023/01/28 10:09:47;;;;;;;30.50;16.47;;;;;;;2.31;79.86;100524.55;1535898;88;22243;-87
2023/01/28 10:12:34;;;;;;;28.47;15.20;;;;;;;2.40;78.83;100534.44;1559115;88;22082;-88
2023/01/28 10:15:27;;;;;;;29.33;15.70;;;;;;;2.44;78.72;100535.92;1559139;88;23050;-88
2023/01/28 10:18:05;;;;;;;32.63;14.97;;;;;;;2.54;79.00;100531.83;1559329;88;22161;-87
2023/01/28 10:20:35;;;;;;;32.57;15.53;;;;;;;2.49;77.15;100530.80;1557838;88;22934;-90
2023/01/28 10:23:19;;;;;;;26.57;15.20;;;;;;;2.53;77.29;100533.22;1552889;88;22165;-91
2023/01/28 10:25:47;;;;;;;26.50;14.97;;;;;;;2.47;76.84;100530.52;1394551;90;22961;-89
2023/01/28 10:28:22;;;;;;;32.37;15.63;;;;;;;2.52;77.42;100528.46;1397050;88;22272;-88
2023/01/28 10:30:49;;;;;;;29.50;15.57;;;;;;;2.57;77.51;100529.03;1397528;88;22091;-88
2023/01/28 10:33:32;;;;;;;29.80;16.90;;;;;;;2.70;78.29;100524.74;1398271;88;22223;-85
2023/01/28 10:35:59;;;;;;;29.57;16.27;;;;;;;2.75;77.86;100522.30;1401619;88;22098;-85
2023/01/28 10:38:26;;;;;;;28.33;16.23;;;;;;;2.90;78.65;100530.48;1398114;88;22121;-86
2023/01/28 10:40:58;;;;;;;30.70;14.97;;;;;;;2.89;77.57;100523.11;1397668;88;23126;-85
2023/01/28 10:43:28;;;;;;;27.70;15.33;;;;;;;2.92;77.01;100526.00;1394654;90;23074;-86
2023/01/28 10:46:25;;;;;;;27.70;15.50;;;;;;;2.84;76.19;100516.02;1558768;88;22060;-88
2023/01/28 10:49:20;;;;;;;32.87;15.87;;;;;;;2.83;75.91;100520.05;1426254;89;22203;-83
2023/01/28 10:51:46;;;;;;;38.70;16.87;;;;;;;2.69;76.37;100520.42;1532918;88;22158;-89
2023/01/28 10:54:21;;;;;;;29.60;14.43;;;;;;;2.79;76.66;100521.16;1398830;88;22066;-84
2023/01/28 10:56:50;;;;;;;26.90;14.57;;;;;;;2.79;76.37;100518.55;1559251;88;22126;-86
2023/01/28 10:59:29;;;;;;;32.43;15.83;;;;;;;2.94;77.63;100522.36;1394432;88;23106;-87
2023/01/28 11:02:02;;;;;;;30.63;15.80;;;;;;;3.07;77.55;100532.04;1400546;88;22105;-90
2023/01/28 11:04:32;;;;;;;28.10;15.10;;;;;;;2.83;76.05;100520.05;1475761;88;23238;-87
2023/01/28 11:07:20;;;;;;;26.80;14.17;;;;;;;2.83;76.05;100520.05;1455396;88;22338;-82
2023/01/28 11:09:50;;;;;;;27.07;15.70;;;;;;;2.90;76.89;100526.08;1475607;88;21524;-86
2023/01/28 11:12:26;;;;;;;29.30;16.20;;;;;;;3.05;77.42;100526.92;1569822;88;22220;-87
2023/01/28 11:15:02;;;;;;;37.13;15.93;;;;;;;3.05;76.98;100526.92;1569810;88;21421;-84
2023/01/28 11:17:32;;;;;;;30.17;16.23;;;;;;;3.18;75.51;100516.51;1409500;88;22314;-87
2023/01/28 11:20:02;;;;;;;40.33;18.65;;;;;;;3.18;75.51;100516.51;1569905;88;22294;-89
2023/01/28 11:22:40;;;;;;;26.33;14.65;;;;;;;3.13;74.88;100524.63;1562312;87;21362;-89
2023/01/28 11:25:32;;;;;;;29.70;16.17;;;;;;;3.12;74.97;100528.20;1448511;88;21391;-88
2023/01/28 11:28:06;;;;;;;27.77;14.20;;;;;;;3.23;74.69;100509.69;1569828;88;22172;-88
2023/01/28 11:30:42;;;;;;;27.07;13.83;;;;;;;3.23;74.69;100509.69;1408875;88;21390;-87
2023/01/28 11:33:17;;;;;;;27.90;15.47;;;;;;;3.28;74.65;100517.61;1404318;91;21362;-89
2023/01/28 11:35:54;;;;;;;26.37;14.47;;;;;;;3.07;74.38;100522.41;1555112;88;22153;-85
2023/01/28 11:38:24;;;;;;;24.60;14.37;;;;;;;3.07;74.38;100522.41;1403435;89;22349;-84
2023/01/28 11:40:53;;;;;;;33.42;17.48;;;;;;;3.04;74.28;100511.31;1401275;88;22169;-89
2023/01/28 11:43:26;;;;;;;26.60;13.63;;;;;;;3.28;75.68;100512.82;1404420;87;21361;-84
2023/01/28 11:46:21;;;;;;;29.10;15.07;;;;;;;3.42;75.92;100515.38;1403343;88;23055;-87
2023/01/28 11:49:07;;;;;;;29.43;15.97;;;;;;;3.53;75.27;100512.91;1569845;88;21317;-88
2023/01/28 11:51:45;;;;;;;24.53;14.93;;;;;;;3.58;75.44;100509.53;1569794;88;21405;-88
2023/01/28 11:54:23;;;;;;;31.77;17.33;;;;;;;3.69;75.61;100510.14;1475073;88;21354;-89
2023/01/28 11:57:03;;;;;;;26.20;15.60;;;;;;;3.52;74.49;100515.17;1402671;89;22285;-85
2023/01/28 11:59:37;;;;;;;29.97;15.13;;;;;;;3.54;74.65;100511.99;1570481;88;21332;-87